sensor_id;sensor_type;location;lat;lon;timestamp;temperature;humidity
12688;DHT22;6408;59.388;17.798;2022-12-29T00:00:22;1.70;99.90
12688;DHT22;6408;59.388;17.798;2022-12-29T00:02:51;1.70;99.90
12688;DHT22;6408;59.388;17.798;2022-12-29T00:05:19;1.70;99.90
12688;DHT22;6408;59.388;17.798;2022-12-29T00:07:46;1.60;99.90
12688;DHT22;6408;59.388;17.798;2022-12-29T00:10:14;1.60;99.90
12688;DHT22;6408;59.388;17.798;2022-12-29T00:12:41;1.60;99.90
12688;DHT22;6408;59.388;17.798;2022-12-29T00:15:26;1.60;99.90
12688;DHT22;6408;59.388;17.798;2022-12-29T00:18:08;1.60;99.90
12688;DHT22;6408;59.388;17.798;2022-12-29T00:20:36;1.70;99.90
12688;DHT22;6408;59.388;17.798;2022-12-29T00:23:21;1.70;99.90
12688;DHT22;6408;59.388;17.798;2022-12-29T00:26:12;1.80;99.90
12688;DHT22;6408;59.388;17.798;2022-12-29T00:28:57;1.70;99.90
12688;DHT22;6408;59.388;17.798;2022-12-29T00:31:41;1.70;99.90
12688;DHT22;6408;59.388;17.798;2022-12-29T00:34:28;1.80;99.90
12688;DHT22;6408;59.388;17.798;2022-12-29T00:37:12;1.70;99.90
12688;DHT22;6408;59.388;17.798;2022-12-29T00:39:40;1.70;99.90
12688;DHT22;6408;59.388;17.798;2022-12-29T00:42:24;1.70;99.90
12688;DHT22;6408;59.388;17.798;2022-12-29T00:45:09;1.70;99.90
12688;DHT22;6408;59.388;17.798;2022-12-29T00:47:36;1.60;99.90
12688;DHT22;6408;59.388;17.798;2022-12-29T00:50:06;1.70;99.90
12688;DHT22;6408;59.388;17.798;2022-12-29T00:52:32;1.70;99.90
12688;DHT22;6408;59.388;17.798;2022-12-29T00:54:59;1.70;99.90
12688;DHT22;6408;59.388;17.798;2022-12-29T00:57:27;1.70;99.90
12688;DHT22;6408;59.388;17.798;2022-12-29T00:59:54;1.70;99.90
12688;DHT22;6408;59.388;17.798;2022-12-29T01:02:22;1.70;99.90
12688;DHT22;6408;59.388;17.798;2022-12-29T01:04:50;1.70;99.90
12688;DHT22;6408;59.388;17.798;2022-12-29T01:07:19;1.70;99.90
12688;DHT22;6408;59.388;17.798;2022-12-29T01:09:46;1.70;99.90
12688;DHT22;6408;59.388;17.798;2022-12-29T01:12:33;1.70;99.90
12688;DHT22;6408;59.388;17.798;2022-12-29T01:15:12;1.60;99.90
12688;DHT22;6408;59.388;17.798;2022-12-29T01:17:40;1.70;99.90
12688;DHT22;6408;59.388;17.798;2022-12-29T01:20:09;1.70;99.90
12688;DHT22;6408;59.388;17.798;2022-12-29T01:22:39;1.70;99.90
12688;DHT22;6408;59.388;17.798;2022-12-29T01:25:08;1.60;99.90
12688;DHT22;6408;59.388;17.798;2022-12-29T01:27:35;1.60;99.90
12688;DHT22;6408;59.388;17.798;2022-12-29T01:30:04;1.60;99.90
12688;DHT22;6408;59.388;17.798;2022-12-29T01:32:32;1.60;99.90
12688;DHT22;6408;59.388;17.798;2022-12-29T01:34:59;1.50;99.90
12688;DHT22;6408;59.388;17.798;2022-12-29T01:37:27;1.60;99.90
12688;DHT22;6408;59.388;17.798;2022-12-29T01:39:56;1.60;99.90
12688;DHT22;6408;59.388;17.798;2022-12-29T01:42:25;1.60;99.90
12688;DHT22;6408;59.388;17.798;2022-12-29T01:44:55;1.60;99.90
12688;DHT22;6408;59.388;17.798;2022-12-29T01:47:27;1.60;99.90
12688;DHT22;6408;59.388;17.798;2022-12-29T01:49:59;1.70;99.90
12688;DHT22;6408;59.388;17.798;2022-12-29T01:52:31;1.60;99.90
12688;DHT22;6408;59.388;17.798;2022-12-29T01:55:03;1.70;99.90
12688;DHT22;6408;59.388;17.798;2022-12-29T01:57:36;1.70;99.90
12688;DHT22;6408;59.388;17.798;2022-12-29T02:00:07;1.80;99.90
12688;DHT22;6408;59.388;17.798;2022-12-29T02:02:35;1.90;99.90
12688;DHT22;6408;59.388;17.798;2022-12-29T02:05:07;1.90;99.90
12688;DHT22;6408;59.388;17.798;2022-12-29T02:07:37;1.90;99.90
12688;DHT22;6408;59.388;17.798;2022-12-29T02:10:08;1.90;99.90
12688;DHT22;6408;59.388;17.798;2022-12-29T02:12:35;2.00;99.90
12688;DHT22;6408;59.388;17.798;2022-12-29T02:15:04;2.00;99.90
12688;DHT22;6408;59.388;17.798;2022-12-29T02:17:47;2.00;99.90
12688;DHT22;6408;59.388;17.798;2022-12-29T02:23:41;2.00;99.90
12688;DHT22;6408;59.388;17.798;2022-12-29T02:26:29;2.00;99.90
12688;DHT22;6408;59.388;17.798;2022-12-29T02:29:26;2.10;99.90
12688;DHT22;6408;59.388;17.798;2022-12-29T02:32:03;2.10;99.90
12688;DHT22;6408;59.388;17.798;2022-12-29T02:34:39;2.10;99.90
12688;DHT22;6408;59.388;17.798;2022-12-29T02:37:17;2.10;99.90
12688;DHT22;6408;59.388;17.798;2022-12-29T02:39:50;2.20;99.90
12688;DHT22;6408;59.388;17.798;2022-12-29T02:42:24;2.20;99.90
12688;DHT22;6408;59.388;17.798;2022-12-29T02:45:02;2.10;99.90
12688;DHT22;6408;59.388;17.798;2022-12-29T02:47:36;2.10;99.90
12688;DHT22;6408;59.388;17.798;2022-12-29T02:50:07;2.20;99.90
12688;DHT22;6408;59.388;17.798;2022-12-29T02:52:38;2.30;99.90
12688;DHT22;6408;59.388;17.798;2022-12-29T02:55:10;2.30;99.90
12688;DHT22;6408;59.388;17.798;2022-12-29T02:57:37;2.20;99.90
12688;DHT22;6408;59.388;17.798;2022-12-29T03:00:07;2.10;99.90
12688;DHT22;6408;59.388;17.798;2022-12-29T03:05:53;2.20;99.90
12688;DHT22;6408;59.388;17.798;2022-12-29T03:08:30;2.20;99.90
12688;DHT22;6408;59.388;17.798;2022-12-29T03:11:01;2.20;99.90
12688;DHT22;6408;59.388;17.798;2022-12-29T03:13:34;2.30;99.90
12688;DHT22;6408;59.388;17.798;2022-12-29T03:16:23;2.30;99.90
12688;DHT22;6408;59.388;17.798;2022-12-29T03:18:56;2.30;99.90
12688;DHT22;6408;59.388;17.798;2022-12-29T03:21:32;2.30;99.90
12688;DHT22;6408;59.388;17.798;2022-12-29T03:24:31;2.30;99.90
12688;DHT22;6408;59.388;17.798;2022-12-29T03:27:02;2.30;99.90
12688;DHT22;6408;59.388;17.798;2022-12-29T03:29:38;2.30;99.90
12688;DHT22;6408;59.388;17.798;2022-12-29T03:32:07;2.30;99.90
12688;DHT22;6408;59.388;17.798;2022-12-29T03:34:36;2.40;99.90
12688;DHT22;6408;59.388;17.798;2022-12-29T03:37:09;2.40;99.90
12688;DHT22;6408;59.388;17.798;2022-12-29T03:39:38;2.30;99.90
12688;DHT22;6408;59.388;17.798;2022-12-29T03:42:09;2.40;99.90
12688;DHT22;6408;59.388;17.798;2022-12-29T03:44:40;2.40;99.90
12688;DHT22;6408;59.388;17.798;2022-12-29T03:47:09;2.40;99.90
12688;DHT22;6408;59.388;17.798;2022-12-29T03:49:37;2.40;99.90
12688;DHT22;6408;59.388;17.798;2022-12-29T03:52:07;2.40;99.90
12688;DHT22;6408;59.388;17.798;2022-12-29T03:54:34;2.50;99.90
12688;DHT22;6408;59.388;17.798;2022-12-29T03:57:02;2.60;99.90
12688;DHT22;6408;59.388;17.798;2022-12-29T03:59:29;2.70;99.90
12688;DHT22;6408;59.388;17.798;2022-12-29T04:01:57;2.70;99.90
12688;DHT22;6408;59.388;17.798;2022-12-29T04:04:24;2.70;99.90
12688;DHT22;6408;59.388;17.798;2022-12-29T04:06:52;2.70;99.90
12688;DHT22;6408;59.388;17.798;2022-12-29T04:09:21;2.70;99.90
12688;DHT22;6408;59.388;17.798;2022-12-29T04:11:49;2.70;99.90
12688;DHT22;6408;59.388;17.798;2022-12-29T04:14:16;2.80;99.90
12688;DHT22;6408;59.388;17.798;2022-12-29T04:16:44;2.70;99.90
12688;DHT22;6408;59.388;17.798;2022-12-29T04:19:12;2.80;99.90
12688;DHT22;6408;59.388;17.798;2022-12-29T04:21:40;2.80;99.90
12688;DHT22;6408;59.388;17.798;2022-12-29T04:24:07;2.70;99.90
12688;DHT22;6408;59.388;17.798;2022-12-29T04:26:36;2.80;99.90
12688;DHT22;6408;59.388;17.798;2022-12-29T04:29:04;2.90;99.90
12688;DHT22;6408;59.388;17.798;2022-12-29T04:31:31;2.90;99.90
12688;DHT22;6408;59.388;17.798;2022-12-29T04:33:59;2.80;99.90
12688;DHT22;6408;59.388;17.798;2022-12-29T04:36:27;2.80;99.90
12688;DHT22;6408;59.388;17.798;2022-12-29T04:38:54;3.00;99.90
12688;DHT22;6408;59.388;17.798;2022-12-29T04:41:22;2.90;99.90
12688;DHT22;6408;59.388;17.798;2022-12-29T04:43:52;2.90;99.90
12688;DHT22;6408;59.388;17.798;2022-12-29T04:46:19;2.90;99.90
12688;DHT22;6408;59.388;17.798;2022-12-29T04:48:47;3.00;99.90
12688;DHT22;6408;59.388;17.798;2022-12-29T04:51:14;2.90;99.90
12688;DHT22;6408;59.388;17.798;2022-12-29T04:53:42;3.00;99.90
12688;DHT22;6408;59.388;17.798;2022-12-29T04:56:09;3.00;99.90
12688;DHT22;6408;59.388;17.798;2022-12-29T04:58:37;3.00;99.90
12688;DHT22;6408;59.388;17.798;2022-12-29T05:01:06;3.10;99.90
12688;DHT22;6408;59.388;17.798;2022-12-29T05:03:34;3.10;99.90
12688;DHT22;6408;59.388;17.798;2022-12-29T05:06:01;3.00;99.90
12688;DHT22;6408;59.388;17.798;2022-12-29T05:08:29;3.10;99.90
12688;DHT22;6408;59.388;17.798;2022-12-29T05:10:57;2.90;99.90
12688;DHT22;6408;59.388;17.798;2022-12-29T05:13:24;3.00;99.90
12688;DHT22;6408;59.388;17.798;2022-12-29T05:15:53;3.00;99.90
12688;DHT22;6408;59.388;17.798;2022-12-29T05:18:22;3.00;99.90
12688;DHT22;6408;59.388;17.798;2022-12-29T05:20:50;3.10;99.90
12688;DHT22;6408;59.388;17.798;2022-12-29T05:23:18;3.10;99.90
12688;DHT22;6408;59.388;17.798;2022-12-29T05:25:45;3.00;99.90
12688;DHT22;6408;59.388;17.798;2022-12-29T05:28:13;3.00;99.90
12688;DHT22;6408;59.388;17.798;2022-12-29T05:30:40;3.00;99.90
12688;DHT22;6408;59.388;17.798;2022-12-29T05:33:08;3.10;99.90
12688;DHT22;6408;59.388;17.798;2022-12-29T05:35:38;3.20;99.90
12688;DHT22;6408;59.388;17.798;2022-12-29T05:38:06;3.20;99.90
12688;DHT22;6408;59.388;17.798;2022-12-29T05:40:33;3.20;99.90
12688;DHT22;6408;59.388;17.798;2022-12-29T05:43:01;3.20;99.90
12688;DHT22;6408;59.388;17.798;2022-12-29T05:45:28;3.20;99.90
12688;DHT22;6408;59.388;17.798;2022-12-29T05:47:56;3.30;99.90
12688;DHT22;6408;59.388;17.798;2022-12-29T05:50:23;3.40;99.90
12688;DHT22;6408;59.388;17.798;2022-12-29T05:52:53;3.50;99.90
12688;DHT22;6408;59.388;17.798;2022-12-29T05:55:20;3.50;99.90
12688;DHT22;6408;59.388;17.798;2022-12-29T05:57:48;3.40;99.90
12688;DHT22;6408;59.388;17.798;2022-12-29T06:00:16;3.50;99.90
12688;DHT22;6408;59.388;17.798;2022-12-29T06:02:43;3.50;99.90
12688;DHT22;6408;59.388;17.798;2022-12-29T06:05:11;3.50;99.90
12688;DHT22;6408;59.388;17.798;2022-12-29T06:07:38;3.50;99.90
12688;DHT22;6408;59.388;17.798;2022-12-29T06:10:08;3.60;99.90
12688;DHT22;6408;59.388;17.798;2022-12-29T06:12:36;3.60;99.90
12688;DHT22;6408;59.388;17.798;2022-12-29T06:15:04;3.60;99.90
12688;DHT22;6408;59.388;17.798;2022-12-29T06:17:32;3.50;99.90
12688;DHT22;6408;59.388;17.798;2022-12-29T06:20:00;3.40;99.90
12688;DHT22;6408;59.388;17.798;2022-12-29T06:22:27;3.50;99.90
12688;DHT22;6408;59.388;17.798;2022-12-29T06:24:55;3.40;99.90
12688;DHT22;6408;59.388;17.798;2022-12-29T06:27:24;3.50;99.90
12688;DHT22;6408;59.388;17.798;2022-12-29T06:29:52;3.60;99.90
12688;DHT22;6408;59.388;17.798;2022-12-29T06:32:19;3.60;99.90
12688;DHT22;6408;59.388;17.798;2022-12-29T06:34:47;3.60;99.90
12688;DHT22;6408;59.388;17.798;2022-12-29T06:37:14;3.70;99.90
12688;DHT22;6408;59.388;17.798;2022-12-29T06:39:42;3.70;99.90
12688;DHT22;6408;59.388;17.798;2022-12-29T06:42:10;3.70;99.90
12688;DHT22;6408;59.388;17.798;2022-12-29T06:44:39;3.60;99.90
12688;DHT22;6408;59.388;17.798;2022-12-29T06:47:06;3.70;99.90
12688;DHT22;6408;59.388;17.798;2022-12-29T06:49:34;3.70;99.90
12688;DHT22;6408;59.388;17.798;2022-12-29T06:52:01;3.70;99.90
12688;DHT22;6408;59.388;17.798;2022-12-29T06:54:29;3.70;99.90
12688;DHT22;6408;59.388;17.798;2022-12-29T06:56:57;3.70;99.90
12688;DHT22;6408;59.388;17.798;2022-12-29T06:59:25;3.80;99.90
12688;DHT22;6408;59.388;17.798;2022-12-29T07:01:54;3.70;99.90
12688;DHT22;6408;59.388;17.798;2022-12-29T07:04:22;3.80;99.90
12688;DHT22;6408;59.388;17.798;2022-12-29T07:06:49;3.70;99.90
12688;DHT22;6408;59.388;17.798;2022-12-29T07:09:17;3.80;99.90
12688;DHT22;6408;59.388;17.798;2022-12-29T07:11:44;3.80;99.90
12688;DHT22;6408;59.388;17.798;2022-12-29T07:14:12;3.90;99.90
12688;DHT22;6408;59.388;17.798;2022-12-29T07:16:39;3.80;99.90
12688;DHT22;6408;59.388;17.798;2022-12-29T07:19:09;3.90;99.90
12688;DHT22;6408;59.388;17.798;2022-12-29T07:21:36;3.80;99.90
12688;DHT22;6408;59.388;17.798;2022-12-29T07:24:04;3.80;99.90
12688;DHT22;6408;59.388;17.798;2022-12-29T07:26:32;3.80;99.90
12688;DHT22;6408;59.388;17.798;2022-12-29T07:29:00;3.80;99.90
12688;DHT22;6408;59.388;17.798;2022-12-29T07:31:28;3.90;99.90
12688;DHT22;6408;59.388;17.798;2022-12-29T07:33:56;3.90;99.90
12688;DHT22;6408;59.388;17.798;2022-12-29T07:36:25;3.80;99.90
12688;DHT22;6408;59.388;17.798;2022-12-29T07:38:52;3.90;99.90
12688;DHT22;6408;59.388;17.798;2022-12-29T07:41:20;3.80;99.90
12688;DHT22;6408;59.388;17.798;2022-12-29T07:43:47;3.90;99.90
12688;DHT22;6408;59.388;17.798;2022-12-29T07:46:15;3.90;99.90
12688;DHT22;6408;59.388;17.798;2022-12-29T07:48:43;4.00;99.90
12688;DHT22;6408;59.388;17.798;2022-12-29T07:51:10;4.10;99.90
12688;DHT22;6408;59.388;17.798;2022-12-29T07:53:39;4.00;99.90
12688;DHT22;6408;59.388;17.798;2022-12-29T07:56:07;3.90;99.90
12688;DHT22;6408;59.388;17.798;2022-12-29T07:58:34;4.00;99.90
12688;DHT22;6408;59.388;17.798;2022-12-29T08:01:02;4.00;99.90
12688;DHT22;6408;59.388;17.798;2022-12-29T08:03:31;4.00;99.90
12688;DHT22;6408;59.388;17.798;2022-12-29T08:05:58;3.90;99.90
12688;DHT22;6408;59.388;17.798;2022-12-29T08:08:26;4.10;99.90
12688;DHT22;6408;59.388;17.798;2022-12-29T08:10:56;4.00;99.90
12688;DHT22;6408;59.388;17.798;2022-12-29T08:13:23;4.00;99.90
12688;DHT22;6408;59.388;17.798;2022-12-29T08:15:50;3.90;99.90
12688;DHT22;6408;59.388;17.798;2022-12-29T08:18:18;3.90;99.90
12688;DHT22;6408;59.388;17.798;2022-12-29T08:20:45;4.00;99.90
12688;DHT22;6408;59.388;17.798;2022-12-29T08:23:13;4.00;99.90
12688;DHT22;6408;59.388;17.798;2022-12-29T08:25:40;4.00;99.90
12688;DHT22;6408;59.388;17.798;2022-12-29T08:28:10;4.00;99.90
12688;DHT22;6408;59.388;17.798;2022-12-29T08:30:37;3.90;99.90
12688;DHT22;6408;59.388;17.798;2022-12-29T08:33:05;3.90;99.90
12688;DHT22;6408;59.388;17.798;2022-12-29T08:35:32;3.90;99.90
12688;DHT22;6408;59.388;17.798;2022-12-29T08:37:59;3.90;99.90
12688;DHT22;6408;59.388;17.798;2022-12-29T08:40:27;3.90;99.90
12688;DHT22;6408;59.388;17.798;2022-12-29T08:42:54;3.90;99.90
12688;DHT22;6408;59.388;17.798;2022-12-29T08:45:24;3.90;99.90
12688;DHT22;6408;59.388;17.798;2022-12-29T08:47:51;3.90;99.90
12688;DHT22;6408;59.388;17.798;2022-12-29T08:50:18;3.90;99.90
12688;DHT22;6408;59.388;17.798;2022-12-29T08:52:46;4.00;99.90
12688;DHT22;6408;59.388;17.798;2022-12-29T08:55:14;3.90;99.90
12688;DHT22;6408;59.388;17.798;2022-12-29T08:57:41;4.10;99.90
12688;DHT22;6408;59.388;17.798;2022-12-29T09:00:10;4.10;99.90
12688;DHT22;6408;59.388;17.798;2022-12-29T09:02:39;4.10;99.90
12688;DHT22;6408;59.388;17.798;2022-12-29T09:05:07;4.00;99.90
12688;DHT22;6408;59.388;17.798;2022-12-29T09:07:35;4.00;99.90
12688;DHT22;6408;59.388;17.798;2022-12-29T09:10:03;4.10;99.90
12688;DHT22;6408;59.388;17.798;2022-12-29T09:12:30;4.10;99.90
12688;DHT22;6408;59.388;17.798;2022-12-29T09:14:58;4.10;99.90
12688;DHT22;6408;59.388;17.798;2022-12-29T09:17:25;4.10;99.90
12688;DHT22;6408;59.388;17.798;2022-12-29T09:20:14;4.20;99.90
12688;DHT22;6408;59.388;17.798;2022-12-29T09:22:42;4.20;99.90
12688;DHT22;6408;59.388;17.798;2022-12-29T09:25:10;4.30;99.90
12688;DHT22;6408;59.388;17.798;2022-12-29T09:27:38;4.20;99.90
12688;DHT22;6408;59.388;17.798;2022-12-29T09:30:08;4.20;99.90
12688;DHT22;6408;59.388;17.798;2022-12-29T09:32:36;4.20;99.90
12688;DHT22;6408;59.388;17.798;2022-12-29T09:35:04;4.30;99.90
12688;DHT22;6408;59.388;17.798;2022-12-29T09:37:33;4.30;99.90
12688;DHT22;6408;59.388;17.798;2022-12-29T09:40:01;4.20;99.90
12688;DHT22;6408;59.388;17.798;2022-12-29T09:42:32;4.30;99.90
12688;DHT22;6408;59.388;17.798;2022-12-29T09:45:11;4.20;99.90
12688;DHT22;6408;59.388;17.798;2022-12-29T09:47:41;4.30;99.90
12688;DHT22;6408;59.388;17.798;2022-12-29T09:50:14;4.20;99.90
12688;DHT22;6408;59.388;17.798;2022-12-29T09:52:47;4.30;99.90
12688;DHT22;6408;59.388;17.798;2022-12-29T09:55:17;4.30;99.90
12688;DHT22;6408;59.388;17.798;2022-12-29T09:57:48;4.30;99.90
12688;DHT22;6408;59.388;17.798;2022-12-29T10:00:19;4.30;99.90
12688;DHT22;6408;59.388;17.798;2022-12-29T10:02:50;4.30;99.90
12688;DHT22;6408;59.388;17.798;2022-12-29T10:05:27;4.40;99.90
12688;DHT22;6408;59.388;17.798;2022-12-29T10:08:10;4.40;99.90
12688;DHT22;6408;59.388;17.798;2022-12-29T10:10:48;4.40;99.90
12688;DHT22;6408;59.388;17.798;2022-12-29T10:13:30;4.40;99.90
12688;DHT22;6408;59.388;17.798;2022-12-29T10:16:07;4.50;99.90
12688;DHT22;6408;59.388;17.798;2022-12-29T10:21:39;4.50;99.90
12688;DHT22;6408;59.388;17.798;2022-12-29T10:24:13;4.50;99.90
12688;DHT22;6408;59.388;17.798;2022-12-29T10:26:41;4.60;99.90
12688;DHT22;6408;59.388;17.798;2022-12-29T10:29:14;4.60;99.90
12688;DHT22;6408;59.388;17.798;2022-12-29T10:31:45;4.60;99.90
12688;DHT22;6408;59.388;17.798;2022-12-29T10:34:20;4.60;99.90
12688;DHT22;6408;59.388;17.798;2022-12-29T10:36:50;4.60;99.90
12688;DHT22;6408;59.388;17.798;2022-12-29T10:39:25;4.70;99.90
12688;DHT22;6408;59.388;17.798;2022-12-29T10:42:01;4.60;99.90
12688;DHT22;6408;59.388;17.798;2022-12-29T10:44:32;4.70;99.90
12688;DHT22;6408;59.388;17.798;2022-12-29T10:47:03;4.70;99.90
12688;DHT22;6408;59.388;17.798;2022-12-29T10:49:34;4.70;99.90
12688;DHT22;6408;59.388;17.798;2022-12-29T10:52:04;4.70;99.90
12688;DHT22;6408;59.388;17.798;2022-12-29T10:54:40;4.80;99.90
12688;DHT22;6408;59.388;17.798;2022-12-29T10:57:13;4.80;99.90
12688;DHT22;6408;59.388;17.798;2022-12-29T10:59:43;4.80;99.90
12688;DHT22;6408;59.388;17.798;2022-12-29T11:02:41;4.80;99.90
12688;DHT22;6408;59.388;17.798;2022-12-29T11:05:14;4.80;99.90
12688;DHT22;6408;59.388;17.798;2022-12-29T11:07:43;4.90;99.90
12688;DHT22;6408;59.388;17.798;2022-12-29T11:10:21;4.90;99.90
12688;DHT22;6408;59.388;17.798;2022-12-29T11:12:59;4.80;99.90
12688;DHT22;6408;59.388;17.798;2022-12-29T11:15:28;4.80;99.90
12688;DHT22;6408;59.388;17.798;2022-12-29T11:18:05;4.80;99.90
12688;DHT22;6408;59.388;17.798;2022-12-29T11:20:43;4.80;99.90
12688;DHT22;6408;59.388;17.798;2022-12-29T11:23:32;4.80;99.90
12688;DHT22;6408;59.388;17.798;2022-12-29T11:26:29;4.90;99.90
12688;DHT22;6408;59.388;17.798;2022-12-29T11:29:24;4.90;99.90
12688;DHT22;6408;59.388;17.798;2022-12-29T11:31:53;5.00;99.90
12688;DHT22;6408;59.388;17.798;2022-12-29T11:34:22;4.90;99.90
12688;DHT22;6408;59.388;17.798;2022-12-29T11:36:53;4.90;99.90
12688;DHT22;6408;59.388;17.798;2022-12-29T11:39:28;4.90;99.90
12688;DHT22;6408;59.388;17.798;2022-12-29T11:41:58;5.00;99.90
12688;DHT22;6408;59.388;17.798;2022-12-29T11:44:31;5.00;99.90
12688;DHT22;6408;59.388;17.798;2022-12-29T11:47:02;5.00;99.90
12688;DHT22;6408;59.388;17.798;2022-12-29T11:49:30;5.00;99.90
12688;DHT22;6408;59.388;17.798;2022-12-29T11:51:57;5.00;99.90
12688;DHT22;6408;59.388;17.798;2022-12-29T11:54:29;5.00;99.90
12688;DHT22;6408;59.388;17.798;2022-12-29T11:57:09;5.10;99.90
12688;DHT22;6408;59.388;17.798;2022-12-29T11:59:41;5.10;99.90
12688;DHT22;6408;59.388;17.798;2022-12-29T12:02:32;5.10;99.90
12688;DHT22;6408;59.388;17.798;2022-12-29T12:05:11;5.10;99.90
12688;DHT22;6408;59.388;17.798;2022-12-29T12:07:42;5.20;99.90
12688;DHT22;6408;59.388;17.798;2022-12-29T12:10:20;5.10;99.90
12688;DHT22;6408;59.388;17.798;2022-12-29T12:12:58;5.10;99.90
12688;DHT22;6408;59.388;17.798;2022-12-29T12:15:30;5.10;99.90
12688;DHT22;6408;59.388;17.798;2022-12-29T12:18:03;5.10;99.90
12688;DHT22;6408;59.388;17.798;2022-12-29T12:20:43;5.10;99.90
12688;DHT22;6408;59.388;17.798;2022-12-29T12:23:28;5.10;99.90
12688;DHT22;6408;59.388;17.798;2022-12-29T12:26:02;5.20;99.90
12688;DHT22;6408;59.388;17.798;2022-12-29T12:28:39;5.10;99.90
12688;DHT22;6408;59.388;17.798;2022-12-29T12:31:17;5.10;99.90
12688;DHT22;6408;59.388;17.798;2022-12-29T12:33:48;5.10;99.90
12688;DHT22;6408;59.388;17.798;2022-12-29T12:36:37;5.10;99.90
12688;DHT22;6408;59.388;17.798;2022-12-29T12:39:12;5.10;99.90
12688;DHT22;6408;59.388;17.798;2022-12-29T12:41:52;5.00;99.90
12688;DHT22;6408;59.388;17.798;2022-12-29T12:44:29;5.10;99.90
12688;DHT22;6408;59.388;17.798;2022-12-29T12:47:25;5.00;99.90
12688;DHT22;6408;59.388;17.798;2022-12-29T12:50:07;5.10;99.90
12688;DHT22;6408;59.388;17.798;2022-12-29T12:52:48;5.10;99.90
12688;DHT22;6408;59.388;17.798;2022-12-29T12:55:34;5.10;99.90
12688;DHT22;6408;59.388;17.798;2022-12-29T12:58:11;5.20;99.90
12688;DHT22;6408;59.388;17.798;2022-12-29T13:00:50;5.10;99.90
12688;DHT22;6408;59.388;17.798;2022-12-29T13:03:31;5.10;99.90
12688;DHT22;6408;59.388;17.798;2022-12-29T13:06:15;5.10;99.90
12688;DHT22;6408;59.388;17.798;2022-12-29T13:09:16;5.10;99.90
12688;DHT22;6408;59.388;17.798;2022-12-29T13:11:57;5.10;99.90
12688;DHT22;6408;59.388;17.798;2022-12-29T13:14:36;5.10;99.90
12688;DHT22;6408;59.388;17.798;2022-12-29T13:17:12;5.10;99.90
12688;DHT22;6408;59.388;17.798;2022-12-29T13:19:47;5.20;99.90
12688;DHT22;6408;59.388;17.798;2022-12-29T13:22:23;5.10;99.90
12688;DHT22;6408;59.388;17.798;2022-12-29T13:25:03;5.10;99.90
12688;DHT22;6408;59.388;17.798;2022-12-29T13:27:41;5.10;99.90
12688;DHT22;6408;59.388;17.798;2022-12-29T13:30:15;5.10;99.90
12688;DHT22;6408;59.388;17.798;2022-12-29T13:32:53;5.10;99.90
12688;DHT22;6408;59.388;17.798;2022-12-29T13:35:41;5.20;99.90
12688;DHT22;6408;59.388;17.798;2022-12-29T13:38:16;5.10;99.90
12688;DHT22;6408;59.388;17.798;2022-12-29T13:40:45;5.20;99.90
12688;DHT22;6408;59.388;17.798;2022-12-29T13:43:16;5.20;99.90
12688;DHT22;6408;59.388;17.798;2022-12-29T13:45:45;5.10;99.90
12688;DHT22;6408;59.388;17.798;2022-12-29T13:48:21;5.20;99.90
12688;DHT22;6408;59.388;17.798;2022-12-29T13:50:53;5.10;99.90
12688;DHT22;6408;59.388;17.798;2022-12-29T13:53:29;5.20;99.90
12688;DHT22;6408;59.388;17.798;2022-12-29T13:56:06;5.20;99.90
12688;DHT22;6408;59.388;17.798;2022-12-29T13:58:41;5.20;99.90
12688;DHT22;6408;59.388;17.798;2022-12-29T14:01:18;5.20;99.90
12688;DHT22;6408;59.388;17.798;2022-12-29T14:03:51;5.20;99.90
12688;DHT22;6408;59.388;17.798;2022-12-29T14:06:24;5.20;99.90
12688;DHT22;6408;59.388;17.798;2022-12-29T14:08:54;5.20;99.90
12688;DHT22;6408;59.388;17.798;2022-12-29T14:11:28;5.20;99.90
12688;DHT22;6408;59.388;17.798;2022-12-29T14:13:57;5.20;99.90
12688;DHT22;6408;59.388;17.798;2022-12-29T14:16:30;5.20;99.90
12688;DHT22;6408;59.388;17.798;2022-12-29T14:19:10;5.20;99.90
12688;DHT22;6408;59.388;17.798;2022-12-29T14:21:39;5.30;99.90
12688;DHT22;6408;59.388;17.798;2022-12-29T14:24:42;5.30;99.90
12688;DHT22;6408;59.388;17.798;2022-12-29T14:33:28;5.20;99.90
12688;DHT22;6408;59.388;17.798;2022-12-29T14:36:18;5.20;99.90
12688;DHT22;6408;59.388;17.798;2022-12-29T14:38:47;5.10;99.90
12688;DHT22;6408;59.388;17.798;2022-12-29T14:41:29;5.20;99.90
12688;DHT22;6408;59.388;17.798;2022-12-29T14:44:01;5.20;99.90
12688;DHT22;6408;59.388;17.798;2022-12-29T14:46:54;5.20;99.90
12688;DHT22;6408;59.388;17.798;2022-12-29T14:49:24;5.20;99.90
12688;DHT22;6408;59.388;17.798;2022-12-29T14:52:05;5.20;99.90
12688;DHT22;6408;59.388;17.798;2022-12-29T14:54:45;5.20;99.90
12688;DHT22;6408;59.388;17.798;2022-12-29T14:57:29;5.20;99.90
12688;DHT22;6408;59.388;17.798;2022-12-29T15:00:05;5.20;99.90
12688;DHT22;6408;59.388;17.798;2022-12-29T15:02:36;5.30;99.90
12688;DHT22;6408;59.388;17.798;2022-12-29T15:05:10;5.30;99.90
12688;DHT22;6408;59.388;17.798;2022-12-29T15:07:51;5.30;99.90
12688;DHT22;6408;59.388;17.798;2022-12-29T15:10:20;5.30;99.90
12688;DHT22;6408;59.388;17.798;2022-12-29T15:12:52;5.30;99.90
12688;DHT22;6408;59.388;17.798;2022-12-29T15:15:23;5.20;99.90
12688;DHT22;6408;59.388;17.798;2022-12-29T15:17:51;5.30;99.90
12688;DHT22;6408;59.388;17.798;2022-12-29T15:20:24;5.20;99.90
12688;DHT22;6408;59.388;17.798;2022-12-29T15:22:56;5.20;99.90
12688;DHT22;6408;59.388;17.798;2022-12-29T15:25:24;5.30;99.90
12688;DHT22;6408;59.388;17.798;2022-12-29T15:27:54;5.30;99.90
12688;DHT22;6408;59.388;17.798;2022-12-29T15:30:23;5.20;99.90
12688;DHT22;6408;59.388;17.798;2022-12-29T15:32:51;5.30;99.90
12688;DHT22;6408;59.388;17.798;2022-12-29T15:35:25;5.30;99.90
12688;DHT22;6408;59.388;17.798;2022-12-29T15:37:55;5.20;99.90
12688;DHT22;6408;59.388;17.798;2022-12-29T15:40:29;5.30;99.90
12688;DHT22;6408;59.388;17.798;2022-12-29T15:43:15;5.30;99.90
12688;DHT22;6408;59.388;17.798;2022-12-29T15:45:46;5.20;99.90
12688;DHT22;6408;59.388;17.798;2022-12-29T15:48:17;5.20;99.90
12688;DHT22;6408;59.388;17.798;2022-12-29T15:50:45;5.20;99.90
12688;DHT22;6408;59.388;17.798;2022-12-29T15:53:19;5.20;99.90
12688;DHT22;6408;59.388;17.798;2022-12-29T15:55:50;5.20;99.90
12688;DHT22;6408;59.388;17.798;2022-12-29T15:58:20;5.20;99.90
12688;DHT22;6408;59.388;17.798;2022-12-29T16:00:49;5.20;99.90
12688;DHT22;6408;59.388;17.798;2022-12-29T16:03:19;5.30;99.90
12688;DHT22;6408;59.388;17.798;2022-12-29T16:05:52;5.30;99.90
12688;DHT22;6408;59.388;17.798;2022-12-29T16:08:31;5.20;99.90
12688;DHT22;6408;59.388;17.798;2022-12-29T16:11:01;5.20;99.90
12688;DHT22;6408;59.388;17.798;2022-12-29T16:13:32;5.30;99.90
12688;DHT22;6408;59.388;17.798;2022-12-29T16:16:06;5.30;99.90
12688;DHT22;6408;59.388;17.798;2022-12-29T16:18:36;5.30;99.90
12688;DHT22;6408;59.388;17.798;2022-12-29T16:21:12;5.30;99.90
12688;DHT22;6408;59.388;17.798;2022-12-29T16:23:48;5.40;99.90
12688;DHT22;6408;59.388;17.798;2022-12-29T16:26:17;5.30;99.90
12688;DHT22;6408;59.388;17.798;2022-12-29T16:28:48;5.30;99.90
12688;DHT22;6408;59.388;17.798;2022-12-29T16:31:20;5.30;99.90